Time;durP1;ratioP1;P1;durP2;ratioP2;P2;SDS_P1;SDS_P2;PMS_P1;PMS_P2;Temp;Humidity;BMP_temperature;BMP_pressure;BME280_temperature;BME280_humidity;BME280_pressure;Samples;Min_cycle;Max_cycle;Signal;HPM_P1;HPM_P2
2023/01/13 00:01:40;;;;;;;;;;;23.50;33.00;;;;;;484915;246;1689;-44
2023/01/13 00:03:42;;;;;;;;;;;23.50;33.00;;;;;;485012;246;2364;-44
2023/01/13 00:05:43;;;;;;;;;;;23.50;33.00;;;;;;485059;246;2024;-44
2023/01/13 00:07:45;;;;;;;;;;;23.50;33.00;;;;;;484981;246;2550;-44
2023/01/13 00:09:46;;;;;;;;;;;23.50;32.90;;;;;;484858;246;1692;-44
2023/01/13 00:11:47;;;;;;;;;;;23.50;32.90;;;;;;484877;246;1941;-44
2023/01/13 00:13:48;;;;;;;;;;;23.50;32.90;;;;;;484897;246;1907;-44
2023/01/13 00:15:50;;;;;;;;;;;23.60;33.00;;;;;;484897;246;2152;-44
2023/01/13 00:17:51;;;;;;;;;;;23.50;32.90;;;;;;485170;246;2627;-44
2023/01/13 00:19:52;;;;;;;;;;;23.60;33.00;;;;;;485356;246;1912;-45
2023/01/13 00:21:54;;;;;;;;;;;23.60;33.00;;;;;;484990;244;1664;-44
2023/01/13 00:23:55;;;;;;;;;;;23.60;32.90;;;;;;484978;246;1823;-44
2023/01/13 00:25:56;;;;;;;;;;;23.60;32.90;;;;;;485134;246;1679;-44
2023/01/13 00:27:58;;;;;;;;;;;23.60;32.90;;;;;;485011;246;1659;-44
2023/01/13 00:29:59;;;;;;;;;;;23.60;32.90;;;;;;484949;246;1760;-44
2023/01/13 00:32:00;;;;;;;;;;;23.60;32.90;;;;;;484845;246;1694;-44
2023/01/13 00:34:02;;;;;;;;;;;23.60;32.90;;;;;;484843;246;2193;-44
2023/01/13 00:36:03;;;;;;;;;;;23.60;32.90;;;;;;484879;246;2469;-44
2023/01/13 00:38:04;;;;;;;;;;;23.60;32.90;;;;;;484802;244;1825;-44
2023/01/13 00:40:06;;;;;;;;;;;23.60;32.90;;;;;;484793;244;1747;-44
2023/01/13 00:44:26;;;;;;;;;;;23.40;33.30;;;;;;484740;246;1978;-44
2023/01/13 00:46:27;;;;;;;;;;;23.20;33.60;;;;;;484772;246;2142;-44
2023/01/13 00:48:29;;;;;;;;;;;23.10;33.80;;;;;;484863;246;1867;-44
2023/01/13 00:50:30;;;;;;;;;;;22.90;34.00;;;;;;484809;246;1766;-44
2023/01/13 00:52:31;;;;;;;;;;;22.80;34.20;;;;;;484721;246;1880;-43
2023/01/13 00:54:33;;;;;;;;;;;22.80;34.40;;;;;;484760;246;1727;-44
2023/01/13 00:56:34;;;;;;;;;;;22.80;34.40;;;;;;484553;246;2195;-44
2023/01/13 00:58:35;;;;;;;;;;;22.70;34.40;;;;;;484709;246;1769;-44
2023/01/13 01:00:37;;;;;;;;;;;22.70;34.50;;;;;;484608;246;1606;-44
2023/01/13 01:02:38;;;;;;;;;;;22.60;34.50;;;;;;484634;246;1696;-44
2023/01/13 01:04:40;;;;;;;;;;;22.60;34.60;;;;;;484611;246;1764;-44
2023/01/13 01:06:41;;;;;;;;;;;22.60;34.70;;;;;;484532;246;1960;-44
2023/01/13 01:08:42;;;;;;;;;;;22.50;34.70;;;;;;484745;246;2323;-44
2023/01/13 01:10:43;;;;;;;;;;;22.50;34.80;;;;;;484801;246;1677;-44
2023/01/13 01:12:45;;;;;;;;;;;22.50;34.90;;;;;;484905;246;1928;-44
2023/01/13 01:14:46;;;;;;;;;;;22.40;34.90;;;;;;484797;246;2113;-44
2023/01/13 01:16:47;;;;;;;;;;;22.40;35.00;;;;;;484851;246;2187;-43
2023/01/13 01:18:49;;;;;;;;;;;22.30;35.10;;;;;;484774;246;1832;-44
2023/01/13 01:20:50;;;;;;;;;;;22.30;35.10;;;;;;484667;246;1707;-44
2023/01/13 01:22:51;;;;;;;;;;;22.30;35.20;;;;;;484534;246;1849;-44
2023/01/13 01:24:53;;;;;;;;;;;22.20;35.20;;;;;;484562;246;2008;-44
2023/01/13 01:26:54;;;;;;;;;;;22.20;35.30;;;;;;484541;246;1727;-44
2023/01/13 01:28:55;;;;;;;;;;;22.10;35.30;;;;;;484466;246;1676;-44
2023/01/13 01:30:58;;;;;;;;;;;22.10;35.40;;;;;;484371;243;1934;-44
2023/01/13 01:33:01;;;;;;;;;;;22.00;35.40;;;;;;484439;246;2375;-44
2023/01/13 01:35:00;;;;;;;;;;;22.00;35.50;;;;;;484206;244;2318;-44
2023/01/13 01:37:01;;;;;;;;;;;21.90;35.60;;;;;;484303;246;2238;-44
2023/01/13 01:39:03;;;;;;;;;;;22.00;35.60;;;;;;484362;246;2389;-44
2023/01/13 01:41:04;;;;;;;;;;;22.00;35.70;;;;;;484330;244;2694;-44
2023/01/13 01:45:25;;;;;;;;;;;21.90;35.70;;;;;;484379;246;2248;-44
2023/01/13 01:47:26;;;;;;;;;;;21.90;35.70;;;;;;484515;242;2222;-44
2023/01/13 01:49:27;;;;;;;;;;;21.90;35.70;;;;;;484458;246;2196;-44
2023/01/13 01:51:28;;;;;;;;;;;21.90;35.80;;;;;;484507;246;2145;-43
2023/01/13 01:53:30;;;;;;;;;;;21.90;35.80;;;;;;484373;246;2906;-44
2023/01/13 01:55:31;;;;;;;;;;;21.90;35.80;;;;;;484334;246;1712;-44
2023/01/13 01:57:32;;;;;;;;;;;22.00;35.70;;;;;;484431;246;2207;-44
2023/01/13 01:59:34;;;;;;;;;;;22.00;35.60;;;;;;484456;246;2296;-44
2023/01/13 02:01:35;;;;;;;;;;;22.10;35.50;;;;;;484548;246;1662;-44
2023/01/13 02:03:36;;;;;;;;;;;22.10;35.40;;;;;;484518;246;1888;-44
2023/01/13 02:05:38;;;;;;;;;;;22.20;35.30;;;;;;484418;246;1608;-44
2023/01/13 02:07:39;;;;;;;;;;;22.20;35.20;;;;;;484347;246;1882;-44
2023/01/13 02:09:41;;;;;;;;;;;22.20;35.20;;;;;;484430;246;1844;-43
2023/01/13 02:14:01;;;;;;;;;;;22.20;35.10;;;;;;484464;246;1775;-44
2023/01/13 02:16:03;;;;;;;;;;;22.20;35.10;;;;;;484429;246;2187;-43
2023/01/13 02:18:04;;;;;;;;;;;22.30;35.10;;;;;;484419;246;2088;-44
2023/01/13 02:20:05;;;;;;;;;;;22.20;35.10;;;;;;484419;246;1770;-44
2023/01/13 02:22:07;;;;;;;;;;;22.20;35.10;;;;;;484491;246;1875;-44
2023/01/13 02:26:27;;;;;;;;;;;22.20;35.10;;;;;;484681;246;1874;-44
2023/01/13 02:28:28;;;;;;;;;;;22.20;35.10;;;;;;484453;246;1800;-43
2023/01/13 02:32:53;;;;;;;;;;;22.20;35.20;;;;;;470254;245;2284;-44
2023/01/13 02:34:54;;;;;;;;;;;22.10;35.20;;;;;;484373;246;1705;-44
2023/01/13 02:36:56;;;;;;;;;;;22.10;35.30;;;;;;484567;246;2184;-44
2023/01/13 02:38:57;;;;;;;;;;;22.00;35.40;;;;;;484603;246;1653;-44
2023/01/13 02:44:05;;;;;;;;;;;22.00;35.40;;;;;;484514;246;1743;-44
2023/01/13 02:45:19;;;;;;;;;;;22.00;35.50;;;;;;484355;246;2478;-44
2023/01/13 02:47:21;;;;;;;;;;;22.00;35.60;;;;;;484490;246;1872;-44
2023/01/13 02:49:22;;;;;;;;;;;21.90;35.60;;;;;;484426;246;1952;-44
2023/01/13 02:51:23;;;;;;;;;;;21.90;35.60;;;;;;484333;244;1939;-44
2023/01/13 02:53:25;;;;;;;;;;;21.90;35.60;;;;;;484330;246;2844;-44
2023/01/13 02:55:26;;;;;;;;;;;22.00;35.60;;;;;;484336;246;1941;-44
2023/01/13 02:57:27;;;;;;;;;;;22.10;35.30;;;;;;484445;246;2194;-44
2023/01/13 02:59:29;;;;;;;;;;;22.30;35.10;;;;;;484542;246;1694;-44
2023/01/13 03:01:30;;;;;;;;;;;22.30;34.90;;;;;;484586;246;1639;-44
2023/01/13 03:03:31;;;;;;;;;;;22.30;34.90;;;;;;484443;246;1996;-44
2023/01/13 03:05:33;;;;;;;;;;;22.20;35.10;;;;;;484626;243;2444;-44
2023/01/13 03:07:34;;;;;;;;;;;22.10;35.30;;;;;;484627;243;1728;-43
2023/01/13 03:09:35;;;;;;;;;;;22.00;35.40;;;;;;484654;246;1932;-44
2023/01/13 03:11:37;;;;;;;;;;;21.90;35.50;;;;;;484579;246;1819;-44
2023/01/13 03:13:38;;;;;;;;;;;21.90;35.60;;;;;;484511;246;1875;-43
2023/01/13 03:15:39;;;;;;;;;;;21.90;35.60;;;;;;484459;244;1470;-44
2023/01/13 03:17:40;;;;;;;;;;;21.90;35.60;;;;;;484574;246;2168;-44
2023/01/13 03:19:42;;;;;;;;;;;21.90;35.70;;;;;;484589;246;1680;-44
2023/01/13 03:21:43;;;;;;;;;;;21.90;35.70;;;;;;484627;246;1702;-44
2023/01/13 03:23:45;;;;;;;;;;;21.90;35.70;;;;;;484692;246;1750;-44
2023/01/13 03:25:46;;;;;;;;;;;21.90;35.60;;;;;;484619;243;2014;-43
2023/01/13 03:27:47;;;;;;;;;;;21.90;35.60;;;;;;484513;246;2117;-44
2023/01/13 03:29:49;;;;;;;;;;;21.90;35.60;;;;;;484544;246;2111;-44
2023/01/13 03:31:50;;;;;;;;;;;21.90;35.60;;;;;;484495;246;1936;-43
2023/01/13 03:33:51;;;;;;;;;;;21.90;35.60;;;;;;484837;246;1781;-44
2023/01/13 03:35:53;;;;;;;;;;;22.00;35.60;;;;;;484508;246;1797;-44
2023/01/13 03:37:54;;;;;;;;;;;22.00;35.50;;;;;;484425;246;2195;-44
2023/01/13 03:39:55;;;;;;;;;;;21.90;35.50;;;;;;484344;246;1763;-44
2023/01/13 03:41:58;;;;;;;;;;;21.90;35.50;;;;;;484398;246;1792;-44
2023/01/13 03:46:17;;;;;;;;;;;21.90;35.60;;;;;;484444;246;2610;-44
2023/01/13 03:48:19;;;;;;;;;;;21.90;35.50;;;;;;484545;246;1912;-43
2023/01/13 03:50:20;;;;;;;;;;;22.00;35.50;;;;;;484479;246;2076;-44
2023/01/13 03:52:22;;;;;;;;;;;22.00;35.60;;;;;;484478;246;2195;-44
2023/01/13 03:54:23;;;;;;;;;;;21.90;35.50;;;;;;484493;246;2172;-44
2023/01/13 03:56:25;;;;;;;;;;;21.90;35.60;;;;;;484492;246;2206;-44
2023/01/13 03:58:26;;;;;;;;;;;21.90;35.50;;;;;;484545;244;2081;-44
2023/01/13 04:00:27;;;;;;;;;;;21.90;35.50;;;;;;484682;244;1699;-44
2023/01/13 04:02:28;;;;;;;;;;;21.90;35.60;;;;;;484557;246;2047;-44
2023/01/13 04:04:30;;;;;;;;;;;22.00;35.60;;;;;;484588;246;1682;-44
2023/01/13 04:06:31;;;;;;;;;;;21.90;35.50;;;;;;484582;246;2471;-43
2023/01/13 04:08:32;;;;;;;;;;;21.90;35.50;;;;;;484587;246;1891;-44
2023/01/13 04:10:34;;;;;;;;;;;21.90;35.50;;;;;;484638;246;1680;-44
2023/01/13 04:14:56;;;;;;;;;;;21.90;35.50;;;;;;484477;246;1827;-44
2023/01/13 04:16:57;;;;;;;;;;;21.90;35.50;;;;;;484445;246;2267;-44
2023/01/13 04:18:58;;;;;;;;;;;21.90;35.60;;;;;;484497;246;2121;-44
2023/01/13 04:21:00;;;;;;;;;;;21.90;35.50;;;;;;484452;246;1671;-44
2023/01/13 04:23:01;;;;;;;;;;;21.90;35.60;;;;;;484553;246;1623;-44
2023/01/13 04:25:02;;;;;;;;;;;21.90;35.60;;;;;;484542;246;2156;-44
2023/01/13 04:27:05;;;;;;;;;;;21.90;35.50;;;;;;484555;246;3034;-44
2023/01/13 04:29:05;;;;;;;;;;;21.90;35.50;;;;;;484566;246;2180;-44
2023/01/13 04:31:06;;;;;;;;;;;22.00;35.60;;;;;;484733;243;1710;-44
2023/01/13 04:33:08;;;;;;;;;;;21.90;35.50;;;;;;484667;246;2151;-43
2023/01/13 04:35:09;;;;;;;;;;;21.90;35.50;;;;;;484663;246;1841;-43
2023/01/13 04:37:10;;;;;;;;;;;21.90;35.60;;;;;;484713;243;2156;-44
2023/01/13 04:39:12;;;;;;;;;;;21.90;35.60;;;;;;484805;246;2193;-43
2023/01/13 04:41:13;;;;;;;;;;;21.90;35.50;;;;;;484989;246;1834;-43
2023/01/13 04:43:15;;;;;;;;;;;21.90;35.60;;;;;;484984;246;1810;-44
2023/01/13 04:45:16;;;;;;;;;;;22.00;35.50;;;;;;485208;246;1679;-44
2023/01/13 04:47:17;;;;;;;;;;;22.10;35.20;;;;;;484768;246;2766;-44
2023/01/13 04:49:19;;;;;;;;;;;22.30;35.00;;;;;;484699;246;1871;-44
2023/01/13 04:51:20;;;;;;;;;;;22.40;34.80;;;;;;484730;246;1908;-44
2023/01/13 04:53:21;;;;;;;;;;;22.30;34.80;;;;;;484675;246;1863;-44
2023/01/13 04:55:23;;;;;;;;;;;22.20;34.90;;;;;;484822;246;1750;-44
2023/01/13 04:57:24;;;;;;;;;;;22.20;35.00;;;;;;484742;246;2196;-44
2023/01/13 04:59:25;;;;;;;;;;;22.20;35.10;;;;;;484707;244;2135;-43
2023/01/13 05:01:27;;;;;;;;;;;22.10;35.20;;;;;;484828;243;1952;-44
2023/01/13 05:03:28;;;;;;;;;;;22.10;35.20;;;;;;484841;246;1704;-43
2023/01/13 05:05:29;;;;;;;;;;;22.10;35.30;;;;;;484765;246;1887;-44
2023/01/13 05:07:30;;;;;;;;;;;22.10;35.30;;;;;;484837;246;2129;-44
2023/01/13 05:09:32;;;;;;;;;;;22.00;35.30;;;;;;484795;246;1742;-44
2023/01/13 05:18:31;;;;;;;;;;;21.90;35.40;;;;;;484766;246;2168;-44
2023/01/13 05:20:33;;;;;;;;;;;21.90;35.50;;;;;;484823;246;2723;-44
2023/01/13 05:27:12;;;;;;;;;;;21.80;35.70;;;;;;484841;246;2184;-44
2023/01/13 05:29:13;;;;;;;;;;;21.80;35.80;;;;;;484946;246;1710;-43
2023/01/13 05:31:15;;;;;;;;;;;21.70;35.80;;;;;;484721;246;1713;-43
2023/01/13 05:33:16;;;;;;;;;;;21.70;35.80;;;;;;484939;246;1618;-44
2023/01/13 05:35:17;;;;;;;;;;;21.70;35.90;;;;;;484868;246;1730;-44
2023/01/13 05:37:19;;;;;;;;;;;21.70;35.90;;;;;;484927;246;2171;-44
2023/01/13 05:39:20;;;;;;;;;;;21.70;36.00;;;;;;484829;246;1742;-44
2023/01/13 05:43:41;;;;;;;;;;;21.60;36.00;;;;;;484751;246;1725;-44
2023/01/13 05:45:42;;;;;;;;;;;21.60;36.00;;;;;;484704;244;2035;-43
2023/01/13 05:47:44;;;;;;;;;;;21.60;36.00;;;;;;484676;246;1903;-44
2023/01/13 05:49:45;;;;;;;;;;;21.60;36.00;;;;;;484629;246;2044;-44
2023/01/13 05:51:46;;;;;;;;;;;21.60;36.10;;;;;;484514;246;1509;-44
2023/01/13 05:53:48;;;;;;;;;;;21.60;36.00;;;;;;484545;246;1771;-44
2023/01/13 05:55:49;;;;;;;;;;;21.60;36.10;;;;;;484539;246;1755;-44
2023/01/13 05:57:50;;;;;;;;;;;21.60;36.10;;;;;;484553;246;2195;-44
2023/01/13 05:59:52;;;;;;;;;;;21.70;36.00;;;;;;484482;246;1745;-44
2023/01/13 06:01:53;;;;;;;;;;;21.90;35.60;;;;;;484414;246;1832;-44
2023/01/13 06:03:54;;;;;;;;;;;22.00;35.30;;;;;;484402;246;1662;-44
2023/01/13 06:05:58;;;;;;;;;;;22.20;35.00;;;;;;484399;246;2195;-44
2023/01/13 06:07:57;;;;;;;;;;;22.30;34.80;;;;;;484317;246;2206;-44
2023/01/13 06:09:58;;;;;;;;;;;22.40;34.70;;;;;;484539;246;1722;-44
2023/01/13 06:12:00;;;;;;;;;;;22.40;34.70;;;;;;484562;246;1816;-44
2023/01/13 06:14:01;;;;;;;;;;;22.30;34.70;;;;;;484546;243;1691;-44
2023/01/13 06:16:02;;;;;;;;;;;22.20;34.90;;;;;;484345;246;2096;-44
2023/01/13 06:18:04;;;;;;;;;;;22.10;35.10;;;;;;484333;246;2200;-44
2023/01/13 06:20:07;;;;;;;;;;;22.00;35.30;;;;;;484232;246;2469;-43
2023/01/13 06:22:06;;;;;;;;;;;22.00;35.50;;;;;;484258;246;1747;-44
2023/01/13 06:24:08;;;;;;;;;;;21.90;35.60;;;;;;484422;246;1795;-44
2023/01/13 06:26:09;;;;;;;;;;;21.80;35.60;;;;;;484385;246;1736;-43
2023/01/13 06:28:10;;;;;;;;;;;21.80;35.70;;;;;;484381;244;1898;-44
2023/01/13 06:30:12;;;;;;;;;;;21.70;35.80;;;;;;484368;244;2095;-44
2023/01/13 06:32:13;;;;;;;;;;;21.70;35.80;;;;;;484541;246;2060;-43
2023/01/13 06:34:14;;;;;;;;;;;21.70;35.80;;;;;;484406;246;2270;-44
2023/01/13 06:36:15;;;;;;;;;;;21.70;35.90;;;;;;484389;246;1746;-44
2023/01/13 06:38:17;;;;;;;;;;;21.70;35.90;;;;;;484476;246;2280;-43
2023/01/13 06:40:18;;;;;;;;;;;21.70;36.00;;;;;;484434;245;1675;-43
2023/01/13 06:44:39;;;;;;;;;;;21.60;36.00;;;;;;484463;246;1567;-44
2023/01/13 06:46:40;;;;;;;;;;;21.60;36.00;;;;;;484500;246;2038;-44
2023/01/13 06:48:42;;;;;;;;;;;21.60;36.00;;;;;;484654;246;1841;-43
2023/01/13 06:50:43;;;;;;;;;;;21.50;36.10;;;;;;484546;246;2030;-44
2023/01/13 06:52:44;;;;;;;;;;;21.50;36.10;;;;;;484689;244;1844;-44
2023/01/13 06:54:46;;;;;;;;;;;21.50;36.10;;;;;;484562;246;1684;-44
2023/01/13 06:56:47;;;;;;;;;;;21.50;36.10;;;;;;484558;246;1980;-44
2023/01/13 06:58:48;;;;;;;;;;;21.50;36.10;;;;;;484306;246;2164;-44
2023/01/13 07:00:50;;;;;;;;;;;21.50;36.10;;;;;;484360;246;1535;-44
2023/01/13 07:02:51;;;;;;;;;;;21.50;36.10;;;;;;484445;243;1892;-44
2023/01/13 07:04:52;;;;;;;;;;;21.50;36.20;;;;;;484479;246;2403;-44
2023/01/13 07:06:54;;;;;;;;;;;21.60;36.10;;;;;;484359;246;1744;-44
2023/01/13 07:08:55;;;;;;;;;;;21.80;35.70;;;;;;484403;246;1723;-44
2023/01/13 07:10:56;;;;;;;;;;;22.00;35.30;;;;;;484307;244;1692;-44
2023/01/13 07:15:20;;;;;;;;;;;22.30;34.70;;;;;;484306;243;1893;-44
2023/01/13 07:17:23;;;;;;;;;;;22.40;34.40;;;;;;484405;243;1689;-44
2023/01/13 07:19:23;;;;;;;;;;;22.50;34.40;;;;;;484230;246;2227;-44
2023/01/13 07:21:25;;;;;;;;;;;22.60;34.30;;;;;;484236;246;2111;-44
2023/01/13 07:23:26;;;;;;;;;;;22.50;34.20;;;;;;484575;246;1628;-44
2023/01/13 07:25:27;;;;;;;;;;;22.50;34.40;;;;;;484476;244;1593;-43
2023/01/13 07:27:29;;;;;;;;;;;22.40;34.50;;;;;;484329;244;1293;-43
2023/01/13 07:29:30;;;;;;;;;;;22.30;34.70;;;;;;484360;244;1892;-44
2023/01/13 07:31:31;;;;;;;;;;;22.20;34.70;;;;;;484124;246;2241;-43
2023/01/13 07:33:33;;;;;;;;;;;22.10;34.80;;;;;;484415;243;2208;-43
2023/01/13 07:35:34;;;;;;;;;;;22.10;35.00;;;;;;484326;246;1836;-44
2023/01/13 07:37:35;;;;;;;;;;;22.10;35.10;;;;;;484176;246;2248;-43
2023/01/13 07:39:37;;;;;;;;;;;22.00;35.10;;;;;;484280;244;2048;-44
2023/01/13 07:43:59;;;;;;;;;;;22.00;35.20;;;;;;484222;244;1826;-44
2023/01/13 07:45:59;;;;;;;;;;;21.90;35.20;;;;;;484169;246;1592;-44
2023/01/13 07:48:00;;;;;;;;;;;22.00;35.20;;;;;;484168;246;1721;-44
2023/01/13 07:50:01;;;;;;;;;;;22.00;35.20;;;;;;484281;246;2218;-44
2023/01/13 07:52:03;;;;;;;;;;;22.00;35.20;;;;;;484224;246;1925;-44
2023/01/13 07:54:04;;;;;;;;;;;21.90;35.20;;;;;;484087;246;1906;-43
2023/01/13 07:56:05;;;;;;;;;;;21.90;35.30;;;;;;484175;242;2360;-44
2023/01/13 07:58:08;;;;;;;;;;;21.90;35.30;;;;;;484293;246;2192;-43
2023/01/13 08:00:08;;;;;;;;;;;21.90;35.30;;;;;;484366;246;2450;-44
2023/01/13 08:02:09;;;;;;;;;;;21.90;35.30;;;;;;484280;244;1551;-44
2023/01/13 08:04:11;;;;;;;;;;;21.90;35.30;;;;;;484354;246;2024;-44
2023/01/13 08:06:12;;;;;;;;;;;21.90;35.30;;;;;;484461;243;1405;-44
2023/01/13 08:08:13;;;;;;;;;;;21.90;35.30;;;;;;484511;246;1705;-43
2023/01/13 08:10:15;;;;;;;;;;;21.90;35.20;;;;;;484356;246;1659;-44
2023/01/13 08:14:35;;;;;;;;;;;21.90;35.20;;;;;;484077;246;2202;-43
2023/01/13 08:16:37;;;;;;;;;;;21.90;35.30;;;;;;484338;246;1531;-44
2023/01/13 08:18:38;;;;;;;;;;;21.90;35.20;;;;;;484219;246;2247;-43
2023/01/13 08:20:39;;;;;;;;;;;21.90;35.20;;;;;;483938;246;1727;-44
2023/01/13 08:22:41;;;;;;;;;;;21.90;35.20;;;;;;484221;246;2137;-44
2023/01/13 08:24:42;;;;;;;;;;;21.90;35.20;;;;;;484597;246;1856;-44
2023/01/13 08:26:43;;;;;;;;;;;21.90;35.30;;;;;;484247;246;1642;-44
2023/01/13 08:28:45;;;;;;;;;;;21.90;35.20;;;;;;484401;246;1758;-44
2023/01/13 08:30:46;;;;;;;;;;;21.90;35.20;;;;;;484313;246;2216;-44
2023/01/13 08:32:47;;;;;;;;;;;21.90;35.20;;;;;;484039;246;1669;-44
2023/01/13 08:34:49;;;;;;;;;;;21.90;35.30;;;;;;484310;246;1610;-44
2023/01/13 08:36:50;;;;;;;;;;;21.90;35.30;;;;;;483872;246;1898;-44
2023/01/13 08:38:51;;;;;;;;;;;21.90;35.30;;;;;;484312;246;2144;-44
2023/01/13 08:40:53;;;;;;;;;;;21.90;35.20;;;;;;484015;246;1769;-44
2023/01/13 08:42:54;;;;;;;;;;;21.90;35.30;;;;;;484156;246;1562;-43
2023/01/13 08:44:55;;;;;;;;;;;21.90;35.20;;;;;;484056;246;2413;-44
2023/01/13 08:46:57;;;;;;;;;;;21.90;35.30;;;;;;484044;243;1702;-44
2023/01/13 08:48:58;;;;;;;;;;;21.90;35.20;;;;;;484068;246;1651;-43
2023/01/13 08:50:59;;;;;;;;;;;21.90;35.20;;;;;;483828;244;1717;-43
2023/01/13 08:53:01;;;;;;;;;;;21.90;35.20;;;;;;484028;246;1571;-43
2023/01/13 08:55:02;;;;;;;;;;;21.90;35.20;;;;;;483933;246;1957;-44
2023/01/13 08:57:04;;;;;;;;;;;21.90;35.20;;;;;;483849;244;1406;-44
2023/01/13 08:59:08;;;;;;;;;;;21.90;35.30;;;;;;484127;246;2174;-43
2023/01/13 09:01:07;;;;;;;;;;;21.90;35.20;;;;;;483826;246;1737;-44
2023/01/13 09:03:08;;;;;;;;;;;21.90;35.20;;;;;;484067;246;2109;-44
2023/01/13 09:05:09;;;;;;;;;;;21.90;35.20;;;;;;484315;244;1697;-44
2023/01/13 09:07:10;;;;;;;;;;;21.90;35.20;;;;;;484090;243;2296;-44
2023/01/13 09:09:11;;;;;;;;;;;21.90;35.20;;;;;;484140;246;1937;-44
2023/01/13 09:13:33;;;;;;;;;;;21.90;35.10;;;;;;484269;243;2172;-43
2023/01/13 09:15:35;;;;;;;;;;;21.90;35.20;;;;;;484360;246;1770;-44
2023/01/13 09:17:36;;;;;;;;;;;21.90;35.20;;;;;;484120;243;2043;-44
2023/01/13 09:19:37;;;;;;;;;;;21.90;35.30;;;;;;484332;246;2187;-43
2023/01/13 09:21:39;;;;;;;;;;;21.80;35.30;;;;;;483887;243;1649;-44
2023/01/13 09:23:40;;;;;;;;;;;21.80;35.40;;;;;;484229;242;1526;-43
2023/01/13 09:25:41;;;;;;;;;;;21.70;35.40;;;;;;484059;243;1652;-43
2023/01/13 09:27:43;;;;;;;;;;;21.70;35.40;;;;;;484050;244;1646;-43
2023/01/13 09:29:44;;;;;;;;;;;21.70;35.40;;;;;;484226;246;1670;-43
2023/01/13 09:31:45;;;;;;;;;;;21.70;35.50;;;;;;484226;243;2064;-43
2023/01/13 09:36:06;;;;;;;;;;;21.60;35.50;;;;;;484153;246;1516;-43
2023/01/13 09:38:07;;;;;;;;;;;21.60;35.60;;;;;;484349;246;1858;-43
2023/01/13 09:40:09;;;;;;;;;;;21.70;35.60;;;;;;484224;246;2191;-43
2023/01/13 09:44:29;;;;;;;;;;;21.60;35.60;;;;;;484247;246;1989;-43
2023/01/13 09:46:46;;;;;;;;;;;21.60;35.60;;;;;;484232;246;1637;-43
2023/01/13 09:48:54;;;;;;;;;;;21.60;35.60;;;;;;484293;246;2109;-43
2023/01/13 09:50:55;;;;;;;;;;;21.60;35.70;;;;;;484184;246;1569;-44
2023/01/13 09:52:56;;;;;;;;;;;21.50;35.60;;;;;;484262;246;2458;-44
2023/01/13 09:54:58;;;;;;;;;;;21.60;35.70;;;;;;484299;246;1959;-43
2023/01/13 09:56:59;;;;;;;;;;;21.60;35.70;;;;;;484320;246;1904;-43
2023/01/13 09:59:00;;;;;;;;;;;21.50;35.70;;;;;;484142;246;2172;-44
2023/01/13 10:01:02;;;;;;;;;;;21.50;35.70;;;;;;484177;246;1633;-44
2023/01/13 10:03:03;;;;;;;;;;;21.50;35.70;;;;;;484043;246;1597;-44
2023/01/13 10:05:04;;;;;;;;;;;21.50;35.70;;;;;;484093;246;2092;-44
2023/01/13 10:07:06;;;;;;;;;;;21.50;35.70;;;;;;484163;246;1656;-44
2023/01/13 10:09:07;;;;;;;;;;;21.50;35.70;;;;;;484209;246;2743;-44
2023/01/13 10:13:13;;;;;;;;;;;21.50;35.70;;;;;;484278;244;1770;-44
2023/01/13 10:13:15;;;;;;;;;;;21.50;35.70;;;;;;482592;244;2538;-43
2023/01/13 10:15:16;;;;;;;;;;;21.50;35.80;;;;;;484063;244;2288;-44
2023/01/13 10:17:17;;;;;;;;;;;21.50;35.80;;;;;;484177;242;1760;-43
2023/01/13 10:19:19;;;;;;;;;;;21.50;35.80;;;;;;484067;243;2195;-44
2023/01/13 10:21:20;;;;;;;;;;;21.40;35.60;;;;;;484316;246;1614;-43
2023/01/13 10:23:21;;;;;;;;;;;21.50;35.70;;;;;;484206;246;1834;-43
2023/01/13 10:25:23;;;;;;;;;;;21.50;35.80;;;;;;484346;246;1604;-44
2023/01/13 10:27:24;;;;;;;;;;;21.40;35.70;;;;;;484319;244;1683;-43
2023/01/13 10:29:25;;;;;;;;;;;21.40;35.80;;;;;;484515;246;2274;-44
2023/01/13 10:31:26;;;;;;;;;;;21.40;35.70;;;;;;484442;246;1743;-44
2023/01/13 10:33:28;;;;;;;;;;;21.60;35.50;;;;;;484451;246;2673;-44
2023/01/13 10:35:29;;;;;;;;;;;21.90;35.20;;;;;;484355;246;1953;-44
2023/01/13 10:37:30;;;;;;;;;;;22.00;34.80;;;;;;484561;246;1590;-44
2023/01/13 10:39:32;;;;;;;;;;;22.20;34.60;;;;;;484260;246;2191;-44
2023/01/13 10:41:35;;;;;;;;;;;22.30;34.30;;;;;;484407;246;1724;-44
2023/01/13 10:43:35;;;;;;;;;;;22.40;34.10;;;;;;484251;246;1807;-44
2023/01/13 10:45:36;;;;;;;;;;;22.50;34.00;;;;;;484214;246;1635;-44
2023/01/13 10:47:37;;;;;;;;;;;22.60;33.80;;;;;;484057;246;1668;-44
2023/01/13 10:49:39;;;;;;;;;;;22.60;33.70;;;;;;484367;246;1809;-43
2023/01/13 10:51:40;;;;;;;;;;;22.70;33.60;;;;;;484337;246;2007;-44
2023/01/13 10:53:41;;;;;;;;;;;22.80;33.60;;;;;;484355;246;1937;-44
2023/01/13 10:55:43;;;;;;;;;;;22.80;33.50;;;;;;484393;246;1977;-44
2023/01/13 10:57:44;;;;;;;;;;;22.80;33.30;;;;;;484341;246;2918;-44
2023/01/13 10:59:45;;;;;;;;;;;22.90;33.30;;;;;;484455;246;2505;-44
2023/01/13 11:01:47;;;;;;;;;;;22.90;33.30;;;;;;484462;246;1571;-44
2023/01/13 11:03:48;;;;;;;;;;;23.00;33.20;;;;;;484425;246;1574;-44
2023/01/13 11:05:49;;;;;;;;;;;23.00;33.20;;;;;;484281;242;1685;-44
2023/01/13 11:07:51;;;;;;;;;;;23.00;33.20;;;;;;484397;246;1309;-44
2023/01/13 11:09:52;;;;;;;;;;;23.10;33.10;;;;;;484348;246;2446;-44
2023/01/13 11:11:54;;;;;;;;;;;23.10;33.10;;;;;;484211;246;2104;-43
2023/01/13 11:16:15;;;;;;;;;;;23.20;33.00;;;;;;484336;246;2060;-44
2023/01/13 11:18:17;;;;;;;;;;;23.20;33.00;;;;;;484410;246;1672;-44
2023/01/13 11:20:18;;;;;;;;;;;23.20;32.90;;;;;;484420;246;2203;-44
2023/01/13 11:22:19;;;;;;;;;;;23.20;32.90;;;;;;484404;246;2137;-44
2023/01/13 11:24:20;;;;;;;;;;;23.20;32.80;;;;;;484378;246;1693;-44
2023/01/13 11:26:22;;;;;;;;;;;23.20;32.80;;;;;;484539;246;1907;-44
2023/01/13 11:28:23;;;;;;;;;;;23.30;32.80;;;;;;484385;246;2321;-44
2023/01/13 11:30:24;;;;;;;;;;;23.30;32.80;;;;;;484343;243;2162;-44
2023/01/13 11:32:26;;;;;;;;;;;23.30;32.80;;;;;;484528;246;1711;-44
2023/01/13 11:34:27;;;;;;;;;;;23.40;32.80;;;;;;484503;246;1738;-44
2023/01/13 11:36:28;;;;;;;;;;;23.40;32.70;;;;;;484387;246;1733;-44
2023/01/13 11:38:30;;;;;;;;;;;23.40;32.70;;;;;;484359;246;2090;-44
2023/01/13 11:40:31;;;;;;;;;;;23.40;32.70;;;;;;484342;246;2244;-44
2023/01/13 11:42:32;;;;;;;;;;;23.40;32.60;;;;;;484271;243;1698;-44
2023/01/13 11:44:34;;;;;;;;;;;23.50;32.70;;;;;;484415;246;1707;-44
2023/01/13 11:46:35;;;;;;;;;;;23.50;32.60;;;;;;484401;246;2167;-44
2023/01/13 11:48:36;;;;;;;;;;;23.50;32.60;;;;;;484004;244;1711;-44
2023/01/13 11:50:38;;;;;;;;;;;23.50;32.70;;;;;;484141;243;1695;-43
2023/01/13 11:52:39;;;;;;;;;;;23.50;32.60;;;;;;484294;246;2120;-44
2023/01/13 11:54:40;;;;;;;;;;;23.50;32.50;;;;;;484147;246;1714;-44
2023/01/13 11:56:42;;;;;;;;;;;23.50;32.60;;;;;;484320;246;1565;-44
2023/01/13 11:58:43;;;;;;;;;;;23.60;32.60;;;;;;484180;246;1699;-44
2023/01/13 12:00:44;;;;;;;;;;;23.60;32.50;;;;;;484192;246;2226;-44
2023/01/13 12:02:46;;;;;;;;;;;23.60;32.60;;;;;;484158;246;1717;-44
2023/01/13 12:04:47;;;;;;;;;;;23.60;32.50;;;;;;484355;246;2214;-44
2023/01/13 12:06:48;;;;;;;;;;;23.60;32.50;;;;;;484263;246;1566;-44
2023/01/13 12:08:50;;;;;;;;;;;23.70;32.50;;;;;;484225;246;1875;-44
2023/01/13 12:10:51;;;;;;;;;;;23.70;32.50;;;;;;484319;246;2281;-44
2023/01/13 12:12:52;;;;;;;;;;;23.60;32.60;;;;;;484269;246;1611;-44
2023/01/13 12:14:54;;;;;;;;;;;23.50;32.70;;;;;;484157;246;2213;-44
2023/01/13 12:16:55;;;;;;;;;;;23.40;33.00;;;;;;484040;246;1611;-44
2023/01/13 12:18:56;;;;;;;;;;;23.20;33.20;;;;;;484176;246;1451;-44
2023/01/13 12:20:58;;;;;;;;;;;23.20;33.70;;;;;;484302;246;2211;-44
2023/01/13 12:23:00;;;;;;;;;;;23.00;33.60;;;;;;484390;246;2219;-44
2023/01/13 12:25:00;;;;;;;;;;;23.00;34.20;;;;;;484401;243;2304;-44
2023/01/13 12:27:02;;;;;;;;;;;23.00;33.90;;;;;;484344;246;1678;-44
2023/01/13 12:29:03;;;;;;;;;;;23.00;34.00;;;;;;484315;246;2141;-44
2023/01/13 12:31:06;;;;;;;;;;;22.90;34.10;;;;;;484220;246;1867;-44
2023/01/13 12:33:05;;;;;;;;;;;22.90;34.20;;;;;;484285;246;2168;-44
2023/01/13 12:35:07;;;;;;;;;;;22.80;34.20;;;;;;484300;246;1605;-44
2023/01/13 12:37:08;;;;;;;;;;;22.80;34.20;;;;;;484413;246;1835;-43
2023/01/13 12:39:09;;;;;;;;;;;22.70;34.30;;;;;;484228;244;1947;-43
2023/01/13 12:41:11;;;;;;;;;;;22.70;34.40;;;;;;484120;244;2180;-44
2023/01/13 12:45:31;;;;;;;;;;;22.70;34.40;;;;;;484295;246;1917;-44
2023/01/13 12:47:33;;;;;;;;;;;22.60;34.50;;;;;;484066;246;1412;-44
2023/01/13 12:49:35;;;;;;;;;;;22.60;34.50;;;;;;484126;246;1775;-44
2023/01/13 12:51:36;;;;;;;;;;;22.60;34.50;;;;;;483829;246;2272;-44